KDEH 201355Z AUTO 36011G17KT 10SM CLR 07/02 A3009 RMK AO2